createdAt,value
2024-04-04T00:02:22.445Z,60.40
2024-04-04T00:05:00.047Z,60.49
2024-04-04T00:07:27.986Z,60.69
2024-04-04T00:09:56.338Z,60.54
2024-04-04T00:12:26.369Z,60.79
2024-04-04T00:14:54.393Z,60.62
2024-04-04T00:17:22.479Z,60.50
2024-04-04T00:19:50.659Z,60.54
2024-04-04T00:22:18.513Z,60.53
2024-04-04T00:24:46.509Z,60.72
2024-04-04T00:27:17.160Z,60.39
2024-04-04T00:29:45.419Z,60.28
2024-04-04T00:32:13.301Z,60.43
2024-04-04T00:34:41.247Z,60.47
2024-04-04T00:37:09.491Z,60.23
2024-04-04T00:39:37.282Z,60.35
2024-04-04T00:42:05.403Z,59.69
2024-04-04T00:44:33.382Z,59.16
2024-04-04T00:47:01.567Z,58.61
2024-04-04T00:49:29.574Z,58.40
2024-04-04T00:51:57.622Z,58.16
2024-04-04T00:54:25.709Z,57.93
2024-04-04T00:56:54.111Z,57.88
2024-04-04T00:59:21.886Z,57.99
2024-04-04T01:01:49.724Z,57.68
2024-04-04T01:04:17.480Z,57.65
2024-04-04T01:06:49.482Z,57.66
2024-04-04T01:09:17.767Z,57.35
2024-04-04T01:11:45.683Z,57.22
2024-04-04T01:14:13.613Z,57.03
2024-04-04T01:16:41.742Z,56.62
2024-04-04T01:19:09.904Z,56.53
2024-04-04T01:21:37.660Z,56.40
2024-04-04T01:24:06.213Z,56.54
2024-04-04T01:26:34.101Z,56.52
2024-04-04T01:29:02.115Z,56.66
2024-04-04T01:31:31.183Z,56.51
2024-04-04T01:33:59.200Z,56.65
2024-04-04T01:36:27.123Z,56.85
2024-04-04T01:38:55.002Z,57.17
2024-04-04T01:41:23.035Z,57.38
2024-04-04T01:43:51.007Z,56.97
2024-04-04T01:46:18.990Z,56.67
2024-04-04T01:48:46.895Z,56.75
2024-04-04T01:51:14.893Z,56.28
2024-04-04T01:53:43.079Z,56.02
2024-04-04T01:56:11.109Z,56.12
2024-04-04T01:58:39.093Z,56.12
2024-04-04T02:01:06.905Z,55.91
2024-04-04T02:03:34.589Z,55.94
2024-04-04T02:06:02.605Z,55.83
2024-04-04T02:08:30.412Z,55.80
2024-04-04T02:10:58.175Z,55.81
2024-04-04T02:13:28.142Z,55.85
2024-04-04T02:15:56.373Z,55.89
2024-04-04T02:18:24.603Z,56.17
2024-04-04T02:20:53.117Z,56.62
2024-04-04T02:23:20.925Z,56.82
2024-04-04T02:25:49.117Z,56.97
2024-04-04T02:28:16.947Z,57.17
2024-04-04T02:30:44.838Z,57.61
2024-04-04T02:33:12.888Z,58.13
2024-04-04T02:35:44.839Z,58.61
2024-04-04T02:38:12.800Z,58.97
2024-04-04T02:40:41.795Z,59.46
2024-04-04T02:43:09.468Z,59.96
2024-04-04T02:45:37.728Z,60.38
2024-04-04T02:48:06.023Z,60.71
2024-04-04T02:50:34.223Z,61.39
2024-04-04T02:53:02.194Z,61.99
2024-04-04T02:55:32.526Z,62.33
2024-04-04T02:58:00.869Z,62.90
2024-04-04T03:00:28.988Z,63.41
2024-04-04T03:02:57.806Z,63.84
2024-04-04T03:05:27.003Z,64.26
2024-04-04T03:07:54.958Z,65.06
2024-04-04T03:10:22.847Z,65.53
2024-04-04T03:12:51.007Z,65.90
2024-04-04T03:15:18.905Z,66.39
2024-04-04T03:17:46.852Z,66.83
2024-04-04T03:20:15.026Z,67.63
2024-04-04T03:22:42.920Z,68.62
2024-04-04T03:25:11.124Z,68.82
2024-04-04T03:27:39.287Z,69.04
2024-04-04T03:30:08.618Z,69.40
2024-04-04T03:32:36.524Z,69.56
2024-04-04T03:35:04.836Z,69.61
2024-04-04T03:37:33.170Z,69.88
2024-04-04T03:40:01.685Z,70.10
2024-04-04T03:42:29.736Z,70.38
2024-04-04T03:44:57.566Z,70.40
2024-04-04T03:47:25.335Z,70.26
2024-04-04T03:49:53.412Z,70.40
2024-04-04T03:52:21.321Z,70.10
2024-04-04T03:54:49.311Z,70.09
2024-04-04T03:57:18.084Z,70.54
2024-04-04T03:59:46.228Z,70.31
2024-04-04T04:02:14.066Z,70.17
2024-04-04T04:04:42.129Z,70.32
2024-04-04T04:07:09.932Z,70.14
2024-04-04T04:09:37.794Z,69.81
2024-04-04T04:12:06.073Z,70.33
2024-04-04T04:14:33.982Z,71.18
2024-04-04T04:17:02.236Z,71.57
2024-04-04T04:19:30.214Z,72.01
2024-04-04T04:21:58.065Z,72.32
2024-04-04T04:24:26.151Z,72.47
2024-04-04T04:26:54.296Z,72.90
2024-04-04T04:29:22.549Z,73.31
2024-04-04T04:31:55.791Z,73.40
2024-04-04T04:34:23.724Z,73.65
2024-04-04T04:36:56.484Z,74.02
2024-04-04T04:39:24.905Z,74.11
2024-04-04T04:41:52.680Z,74.25
2024-04-04T04:44:20.540Z,73.90
2024-04-04T04:46:48.441Z,73.97
2024-04-04T04:49:16.262Z,73.91
2024-04-04T04:51:44.325Z,74.17
2024-04-04T04:54:12.728Z,74.18
2024-04-04T04:56:40.524Z,74.27
2024-04-04T04:59:08.460Z,73.89
2024-04-04T05:01:38.195Z,74.19
2024-04-04T05:04:06.627Z,73.85
2024-04-04T05:06:35.576Z,73.76
2024-04-04T05:09:04.658Z,73.78
2024-04-04T05:11:32.580Z,73.91
2024-04-04T05:14:00.454Z,74.38
2024-04-04T05:16:28.388Z,74.55
2024-04-04T05:18:56.331Z,74.88
2024-04-04T05:21:24.220Z,74.70
2024-04-04T05:23:52.125Z,74.55
2024-04-04T05:26:20.026Z,74.67
2024-04-04T05:28:52.186Z,74.71
2024-04-04T05:31:20.135Z,74.70
2024-04-04T05:33:47.968Z,74.05
2024-04-04T05:36:15.782Z,73.06
2024-04-04T05:38:43.760Z,72.77
2024-04-04T05:41:14.130Z,73.10
2024-04-04T05:43:41.886Z,73.55
2024-04-04T05:46:09.731Z,73.63
2024-04-04T05:48:37.682Z,73.21
2024-04-04T05:51:06.124Z,73.28
2024-04-04T05:53:34.336Z,73.50
2024-04-04T05:56:02.317Z,73.35
2024-04-04T05:58:30.092Z,73.55
2024-04-04T06:00:57.997Z,73.40
2024-04-04T06:03:25.799Z,73.37
2024-04-04T06:05:53.728Z,73.73
2024-04-04T06:08:23.317Z,73.69
2024-04-04T06:10:51.463Z,73.76
2024-04-04T06:13:19.407Z,73.73
2024-04-04T06:15:54.578Z,73.74
2024-04-04T06:18:22.529Z,73.81
2024-04-04T06:20:50.467Z,73.56
2024-04-04T06:23:18.275Z,73.75
2024-04-04T06:25:46.101Z,73.63
2024-04-04T06:28:13.918Z,73.48
2024-04-04T06:30:41.789Z,73.48
2024-04-04T06:33:09.631Z,73.65
2024-04-04T06:35:37.634Z,73.41
2024-04-04T06:38:05.526Z,73.53
2024-04-04T06:40:39.157Z,73.49
2024-04-04T06:43:07.374Z,73.37
2024-04-04T06:45:35.551Z,72.94
2024-04-04T06:48:03.679Z,72.55
2024-04-04T06:50:31.570Z,71.99
2024-04-04T06:52:59.391Z,71.34
2024-04-04T06:55:27.340Z,71.03
2024-04-04T06:57:55.274Z,70.87
2024-04-04T07:00:23.759Z,70.79
2024-04-04T07:02:51.655Z,71.11
2024-04-04T07:05:20.132Z,71.20
2024-04-04T07:07:48.043Z,71.44
2024-04-04T07:10:15.795Z,71.86
2024-04-04T07:12:43.766Z,71.73
2024-04-04T07:15:11.747Z,72.09
2024-04-04T07:17:39.756Z,72.35
2024-04-04T07:20:07.864Z,72.29
2024-04-04T07:22:36.403Z,72.73
2024-04-04T07:25:04.638Z,73.25
2024-04-04T07:27:32.372Z,73.31
2024-04-04T07:30:00.439Z,72.79
2024-04-04T07:32:28.351Z,72.29
2024-04-04T07:35:02.104Z,71.87
2024-04-04T07:37:29.908Z,71.76
2024-04-04T07:39:59.224Z,71.85
2024-04-04T07:42:27.254Z,71.72
2024-04-04T07:44:55.434Z,71.04
2024-04-04T07:47:23.341Z,69.42
2024-04-04T07:49:51.280Z,68.31
2024-04-04T07:52:21.520Z,67.51
2024-04-04T07:54:49.807Z,67.50
2024-04-04T07:57:19.803Z,67.84
2024-04-04T07:59:47.802Z,67.83
2024-04-04T08:02:16.241Z,67.94
2024-04-04T08:04:44.306Z,68.09
2024-04-04T08:07:12.326Z,67.57
2024-04-04T08:09:40.282Z,67.88
2024-04-04T08:12:08.706Z,67.54
2024-04-04T08:14:37.654Z,66.98
2024-04-04T08:17:05.847Z,66.55
2024-04-04T08:19:33.749Z,66.09
2024-04-04T08:22:01.667Z,66.22
2024-04-04T08:24:29.483Z,66.24
2024-04-04T08:27:00.343Z,65.82
2024-04-04T08:29:28.434Z,65.87
2024-04-04T08:31:56.302Z,66.22
2024-04-04T08:34:24.348Z,65.83
2024-04-04T08:36:52.339Z,65.88
2024-04-04T08:39:21.513Z,66.16
2024-04-04T08:41:49.503Z,67.09
2024-04-04T08:44:18.120Z,66.61
2024-04-04T08:46:47.461Z,66.75
2024-04-04T08:49:17.620Z,66.11
2024-04-04T08:51:45.599Z,65.93
2024-04-04T08:54:14.482Z,66.48
2024-04-04T08:56:45.656Z,66.41
2024-04-04T08:59:13.902Z,65.92
2024-04-04T09:01:41.843Z,65.23
2024-04-04T09:04:09.915Z,64.75
2024-04-04T09:06:38.771Z,64.33
2024-04-04T09:09:08.640Z,64.42
2024-04-04T09:11:36.560Z,63.77
2024-04-04T09:14:06.595Z,63.82
2024-04-04T09:16:34.489Z,64.17
2024-04-04T09:19:16.707Z,64.67
2024-04-04T09:21:45.846Z,64.62
2024-04-04T09:24:16.240Z,64.58
2024-04-04T09:26:45.156Z,64.42
2024-04-04T09:29:13.244Z,64.71
2024-04-04T09:31:42.795Z,64.72
2024-04-04T09:34:14.395Z,64.84
2024-04-04T09:36:46.341Z,65.02
2024-04-04T09:39:20.546Z,65.23
2024-04-04T09:41:51.006Z,65.34
2024-04-04T09:44:19.816Z,65.16
2024-04-04T09:46:48.258Z,65.08
2024-04-04T09:49:18.466Z,65.12
2024-04-04T09:51:51.106Z,65.11
2024-04-04T09:54:21.499Z,65.35
2024-04-04T09:56:50.761Z,65.61
2024-04-04T09:59:29.050Z,65.84
2024-04-04T10:02:07.201Z,65.51
2024-04-04T10:04:36.525Z,65.21
2024-04-04T10:07:05.648Z,64.99
2024-04-04T10:09:41.387Z,64.93
2024-04-04T10:12:11.130Z,64.46
2024-04-04T10:14:39.277Z,64.34
2024-04-04T10:17:07.603Z,64.89
2024-04-04T10:19:36.372Z,65.28
2024-04-04T10:22:16.049Z,65.32
2024-04-04T10:24:44.244Z,65.58
2024-04-04T10:27:13.381Z,66.20
2024-04-04T10:29:46.590Z,66.44
2024-04-04T10:32:19.914Z,66.80
2024-04-04T10:34:48.007Z,66.82
2024-04-04T10:37:16.025Z,66.55
2024-04-04T10:39:43.972Z,66.75
2024-04-04T10:42:12.036Z,67.06
2024-04-04T10:44:40.123Z,67.81
2024-04-04T10:47:09.908Z,68.24
2024-04-04T10:49:37.858Z,68.81
2024-04-04T10:52:06.865Z,68.82
2024-04-04T10:54:35.496Z,68.75
2024-04-04T10:57:04.165Z,69.16
2024-04-04T10:59:32.780Z,69.66
2024-04-04T11:02:05.740Z,69.65
2024-04-04T11:04:33.823Z,69.77
2024-04-04T11:07:05.858Z,69.68
2024-04-04T11:09:36.954Z,69.25
2024-04-04T11:12:05.777Z,69.00
2024-04-04T11:14:34.081Z,68.60
2024-04-04T11:17:01.918Z,68.31
2024-04-04T11:19:29.942Z,67.99
2024-04-04T11:21:57.827Z,67.99
2024-04-04T11:24:29.996Z,68.16
2024-04-04T11:26:58.077Z,68.12
2024-04-04T11:29:26.066Z,67.27
2024-04-04T11:31:55.031Z,67.47
2024-04-04T11:34:22.854Z,67.21
2024-04-04T11:36:51.941Z,67.82
2024-04-04T11:39:21.697Z,67.75
2024-04-04T11:41:51.950Z,67.30
2024-04-04T11:44:19.806Z,66.43
2024-04-04T11:46:47.769Z,65.75
2024-04-04T11:49:17.997Z,65.38
2024-04-04T11:51:46.451Z,65.54
2024-04-04T11:54:14.450Z,65.51
2024-04-04T11:56:42.242Z,65.57
2024-04-04T11:59:10.020Z,65.31
2024-04-04T12:01:39.005Z,65.26
2024-04-04T12:04:09.729Z,64.99
2024-04-04T12:06:37.835Z,64.75
2024-04-04T12:09:11.010Z,64.71
2024-04-04T12:11:39.496Z,64.34
2024-04-04T12:14:08.555Z,63.60
2024-04-04T12:16:40.479Z,62.92
2024-04-04T12:19:27.045Z,63.18
2024-04-04T12:21:56.086Z,62.34
2024-04-04T12:24:24.552Z,62.68
2024-04-04T12:26:52.582Z,63.24
2024-04-04T12:29:21.023Z,63.15
2024-04-04T12:31:50.621Z,63.16
2024-04-04T12:34:18.672Z,60.92
2024-04-04T12:36:46.902Z,59.93
2024-04-04T12:39:15.755Z,58.85
2024-04-04T12:41:43.643Z,58.78
2024-04-04T12:44:11.542Z,58.53
2024-04-04T12:46:40.694Z,58.66
2024-04-04T12:49:09.140Z,58.88
2024-04-04T12:51:37.662Z,59.75
2024-04-04T12:54:05.602Z,60.12
2024-04-04T12:56:33.574Z,60.55
2024-04-04T12:59:01.544Z,60.63
2024-04-04T13:01:29.471Z,60.30
2024-04-04T13:03:57.494Z,60.21
2024-04-04T13:06:25.796Z,60.29
2024-04-04T13:08:54.066Z,60.47
2024-04-04T13:11:21.938Z,59.89
2024-04-04T13:13:49.845Z,59.30
2024-04-04T13:16:17.947Z,59.23
2024-04-04T13:18:45.889Z,59.94
2024-04-04T13:21:13.951Z,59.91
2024-04-04T13:23:41.873Z,59.75
2024-04-04T13:26:09.996Z,59.34
2024-04-04T13:28:37.900Z,58.36
2024-04-04T13:31:05.827Z,57.76
2024-04-04T13:33:33.971Z,57.84
2024-04-04T13:36:02.095Z,58.18
2024-04-04T13:38:31.967Z,57.88
2024-04-04T13:41:00.078Z,57.47
2024-04-04T13:43:27.975Z,57.08
2024-04-04T13:45:56.175Z,56.24
2024-04-04T13:48:24.281Z,55.96
2024-04-04T13:50:52.299Z,56.02
2024-04-04T13:53:20.095Z,56.37
2024-04-04T13:55:47.997Z,56.26
2024-04-04T13:58:16.520Z,55.95
2024-04-04T14:00:44.391Z,56.04
2024-04-04T14:03:12.184Z,56.46
2024-04-04T14:05:40.064Z,55.69
2024-04-04T14:08:07.866Z,55.03
2024-04-04T14:10:35.809Z,54.49
2024-04-04T14:13:03.797Z,54.47
2024-04-04T14:15:31.652Z,54.97
2024-04-04T14:17:59.606Z,55.41
2024-04-04T14:20:27.581Z,55.32
2024-04-04T14:22:55.401Z,54.89
2024-04-04T14:25:23.346Z,55.23
2024-04-04T14:27:51.261Z,55.23
2024-04-04T14:30:19.243Z,55.05
2024-04-04T14:32:47.108Z,54.98
2024-04-04T14:35:15.416Z,54.97
2024-04-04T14:37:43.441Z,54.79
2024-04-04T14:40:11.770Z,54.72
2024-04-04T14:42:39.581Z,54.62
2024-04-04T14:45:10.116Z,54.65
2024-04-04T14:47:38.229Z,54.55
2024-04-04T14:50:06.378Z,54.71
2024-04-04T14:52:34.403Z,54.52
2024-04-04T14:55:02.459Z,54.23
2024-04-04T14:57:30.767Z,54.15
2024-04-04T14:59:58.645Z,54.38
2024-04-04T15:02:26.472Z,54.55
2024-04-04T15:04:54.348Z,54.84
2024-04-04T15:07:25.310Z,54.65
2024-04-04T15:09:53.184Z,54.78
2024-04-04T15:12:21.016Z,54.91
2024-04-04T15:14:49.194Z,54.48
2024-04-04T15:17:16.949Z,54.30
2024-04-04T15:19:44.868Z,54.14
2024-04-04T15:22:12.934Z,54.38
2024-04-04T15:24:40.680Z,54.15
2024-04-04T15:27:08.514Z,53.88
2024-04-04T15:29:36.544Z,54.18
2024-04-04T15:32:04.716Z,54.24
2024-04-04T15:34:32.555Z,54.12
2024-04-04T15:37:00.530Z,54.36
2024-04-04T15:39:29.051Z,54.50
2024-04-04T15:41:56.835Z,54.80
2024-04-04T15:44:25.283Z,54.81
2024-04-04T15:46:54.501Z,54.84
2024-04-04T15:49:22.564Z,54.88
2024-04-04T15:51:50.459Z,54.36
2024-04-04T15:54:18.207Z,54.18
2024-04-04T15:56:47.263Z,54.43
2024-04-04T15:59:16.805Z,55.06
2024-04-04T16:01:46.936Z,55.17
2024-04-04T16:04:15.098Z,55.14
2024-04-04T16:06:43.039Z,55.18
2024-04-04T16:09:11.234Z,55.37
2024-04-04T16:11:39.262Z,55.41
2024-04-04T16:14:07.108Z,55.21
2024-04-04T16:16:34.913Z,55.54
2024-04-04T16:19:02.837Z,55.68
2024-04-04T16:21:31.078Z,55.91
2024-04-04T16:23:58.954Z,56.26
2024-04-04T16:26:26.861Z,56.31
2024-04-04T16:28:54.747Z,56.70
2024-04-04T16:31:22.872Z,56.55
2024-04-04T16:33:50.972Z,56.57
2024-04-04T16:36:19.831Z,56.88
2024-04-04T16:38:47.613Z,56.82
2024-04-04T16:41:15.573Z,56.62
2024-04-04T16:43:43.530Z,56.67
2024-04-04T16:46:11.561Z,56.84
2024-04-04T16:48:39.342Z,56.69
2024-04-04T16:51:07.552Z,56.85
2024-04-04T16:53:35.690Z,57.26
2024-04-04T16:56:08.374Z,57.58
2024-04-04T16:58:36.692Z,57.62
2024-04-04T17:01:04.800Z,57.76
2024-04-04T17:03:32.746Z,58.08
2024-04-04T17:06:00.816Z,57.99
2024-04-04T17:08:28.735Z,58.40
2024-04-04T17:10:56.536Z,58.51
2024-04-04T17:13:24.926Z,58.56
2024-04-04T17:15:52.733Z,58.64
2024-04-04T17:18:21.019Z,58.43
2024-04-04T17:20:48.967Z,58.44
2024-04-04T17:23:16.833Z,58.42
2024-04-04T17:25:44.796Z,58.67
2024-04-04T17:28:12.715Z,58.54
2024-04-04T17:30:40.463Z,58.67
2024-04-04T17:33:08.433Z,58.88
2024-04-04T17:35:36.567Z,59.37
2024-04-04T17:38:04.540Z,59.45
2024-04-04T17:40:32.414Z,59.29
2024-04-04T17:43:00.314Z,59.20
2024-04-04T17:45:28.180Z,59.46
2024-04-04T17:47:56.702Z,59.59
2024-04-04T17:50:24.781Z,60.04
2024-04-04T17:52:53.776Z,60.23
2024-04-04T17:55:21.762Z,60.32
2024-04-04T17:57:50.086Z,60.17
2024-04-04T18:00:18.025Z,60.25
2024-04-04T18:02:46.016Z,60.19
2024-04-04T18:05:13.744Z,60.30
2024-04-04T18:07:42.004Z,60.49
2024-04-04T18:10:09.991Z,60.79
2024-04-04T18:12:38.093Z,60.74
2024-04-04T18:15:06.602Z,61.04
2024-04-04T18:17:34.697Z,61.35
2024-04-04T18:20:04.581Z,61.55
2024-04-04T18:22:32.764Z,61.48
2024-04-04T18:25:00.525Z,61.51
2024-04-04T18:27:28.292Z,61.64
2024-04-04T18:29:56.137Z,61.57
2024-04-04T18:32:24.708Z,62.30
2024-04-04T18:34:52.410Z,62.29
2024-04-04T18:37:20.188Z,62.55
2024-04-04T18:39:48.148Z,62.62
2024-04-04T18:42:17.308Z,62.72
2024-04-04T18:44:46.428Z,62.70
2024-04-04T18:47:14.966Z,63.02
2024-04-04T18:49:43.781Z,62.85
2024-04-04T18:52:13.551Z,62.75
2024-04-04T18:54:41.515Z,62.82
2024-04-04T18:57:09.377Z,62.96
2024-04-04T18:59:37.199Z,63.00
2024-04-04T19:02:05.233Z,63.58
2024-04-04T19:04:33.085Z,63.65
2024-04-04T19:07:00.884Z,63.78
2024-04-04T19:09:28.946Z,64.22
2024-04-04T19:11:59.536Z,64.52
2024-04-04T19:14:27.465Z,64.53
2024-04-04T19:16:55.266Z,64.80
2024-04-04T19:19:23.452Z,64.90
2024-04-04T19:21:51.463Z,64.97
2024-04-04T19:24:19.355Z,65.01
2024-04-04T19:26:47.483Z,64.92
2024-04-04T19:29:15.510Z,65.07
2024-04-04T19:31:43.513Z,65.20
2024-04-04T19:34:11.418Z,65.43
2024-04-04T19:36:39.338Z,65.55
2024-04-04T19:39:07.170Z,65.63
2024-04-04T19:41:36.564Z,65.77
2024-04-04T19:44:05.020Z,65.81
2024-04-04T19:46:33.824Z,65.88
2024-04-04T19:49:04.726Z,65.95
2024-04-04T19:51:32.949Z,66.10
2024-04-04T19:54:01.387Z,66.30
2024-04-04T19:56:29.472Z,66.59
2024-04-04T19:58:57.316Z,66.93
2024-04-04T20:01:25.130Z,67.10
2024-04-04T20:03:53.641Z,67.15
2024-04-04T20:06:21.998Z,67.10
2024-04-04T20:08:49.982Z,67.52
2024-04-04T20:11:18.406Z,67.87
2024-04-04T20:13:46.659Z,68.33
2024-04-04T20:16:14.452Z,68.49
2024-04-04T20:18:42.973Z,68.57
2024-04-04T20:21:10.857Z,68.40
2024-04-04T20:23:38.718Z,68.54
2024-04-04T20:26:06.826Z,68.35
2024-04-04T20:28:34.831Z,68.26
2024-04-04T20:31:02.908Z,68.63
2024-04-04T20:33:32.387Z,69.03
2024-04-04T20:36:00.223Z,69.10
2024-04-04T20:38:28.093Z,69.37
2024-04-04T20:40:56.024Z,69.48
2024-04-04T20:43:23.786Z,69.58
2024-04-04T20:45:51.608Z,69.94
2024-04-04T20:48:19.938Z,69.77
2024-04-04T20:50:47.944Z,69.91
2024-04-04T20:53:15.660Z,70.37
2024-04-04T20:55:43.979Z,70.35
2024-04-04T20:58:13.443Z,70.32
2024-04-04T21:00:41.593Z,70.52
2024-04-04T21:03:09.543Z,70.59
2024-04-04T21:05:38.337Z,70.51
2024-04-04T21:08:06.612Z,70.49
2024-04-04T21:10:35.105Z,70.40
2024-04-04T21:13:03.586Z,70.48
2024-04-04T21:15:31.491Z,70.61
2024-04-04T21:18:06.849Z,70.54
2024-04-04T21:20:39.519Z,70.66
2024-04-04T21:23:07.381Z,70.93
2024-04-04T21:25:35.370Z,71.11
2024-04-04T21:28:03.237Z,71.30
2024-04-04T21:30:31.813Z,71.39
2024-04-04T21:33:02.973Z,71.23
2024-04-04T21:35:30.897Z,71.47
2024-04-04T21:37:58.773Z,71.71
2024-04-04T21:40:26.449Z,71.82
2024-04-04T21:42:55.716Z,71.85
2024-04-04T21:45:23.678Z,71.70
2024-04-04T21:47:51.611Z,72.03
2024-04-04T21:50:19.425Z,72.10
2024-04-04T21:52:47.226Z,72.09
2024-04-04T21:55:15.190Z,71.99
2024-04-04T21:57:43.108Z,72.00
2024-04-04T22:00:14.276Z,71.67
2024-04-04T22:02:43.082Z,71.70
2024-04-04T22:05:12.154Z,71.93
2024-04-04T22:07:39.939Z,71.95
2024-04-04T22:10:08.120Z,71.72
2024-04-04T22:12:35.893Z,72.09
2024-04-04T22:15:04.526Z,71.50
2024-04-04T22:17:34.281Z,71.54
2024-04-04T22:20:02.131Z,71.74
2024-04-04T22:22:31.180Z,71.83
2024-04-04T22:24:59.167Z,71.54
2024-04-04T22:27:26.972Z,71.09
2024-04-04T22:29:55.464Z,70.56
2024-04-04T22:32:23.708Z,70.28
2024-04-04T22:34:51.542Z,70.42
2024-04-04T22:37:20.081Z,70.53
2024-04-04T22:39:47.824Z,70.75
2024-04-04T22:42:16.026Z,70.77
2024-04-04T22:44:43.979Z,70.35
2024-04-04T22:47:12.278Z,70.60
2024-04-04T22:49:40.436Z,70.69
2024-04-04T22:52:08.183Z,70.82
2024-04-04T22:54:37.854Z,71.03
2024-04-04T22:57:06.431Z,70.71
2024-04-04T22:59:34.683Z,70.65
2024-04-04T23:02:02.838Z,70.43
2024-04-04T23:04:30.792Z,70.28
2024-04-04T23:06:58.591Z,69.65
2024-04-04T23:09:26.499Z,69.95
2024-04-04T23:11:55.214Z,69.86
2024-04-04T23:14:23.320Z,69.80
2024-04-04T23:16:51.315Z,69.95
2024-04-04T23:19:19.397Z,70.01
2024-04-04T23:21:47.293Z,70.17
2024-04-04T23:24:15.333Z,69.96
2024-04-04T23:26:43.096Z,69.95
2024-04-04T23:29:11.030Z,70.09
2024-04-04T23:31:39.128Z,70.14
2024-04-04T23:34:06.940Z,70.28
2024-04-04T23:36:34.713Z,70.25
2024-04-04T23:39:02.752Z,70.13
2024-04-04T23:41:30.897Z,69.54
2024-04-04T23:43:58.751Z,69.39
2024-04-04T23:46:26.593Z,69.78
2024-04-04T23:48:54.578Z,70.17
2024-04-04T23:51:22.459Z,70.23
2024-04-04T23:53:50.654Z,70.31
2024-04-04T23:56:18.421Z,70.38
2024-04-04T23:58:48.560Z,70.25
